sensor_id;sensor_type;location;lat;lon;timestamp;P1;P4;P2;P0;N10;N4;N25;N1;N05;TS
71522;SPS30;59343;51.102;5.884;2023-11-19T00:00:06;1.29;1.29;1.29;1.22;9.78;9.78;9.77;9.76;8.62;0.42
71522;SPS30;59343;51.102;5.884;2023-11-19T00:02:40;1.26;1.26;1.26;1.19;9.48;9.48;9.47;9.46;8.35;0.42
71522;SPS30;59343;51.102;5.884;2023-11-19T00:05:06;1.47;1.47;1.47;1.39;11.12;11.12;11.12;11.10;9.80;0.44
71522;SPS30;59343;51.102;5.884;2023-11-19T00:07:35;1.42;1.42;1.42;1.34;10.70;10.69;10.69;10.68;9.42;0.44
71522;SPS30;59343;51.102;5.884;2023-11-19T00:10:02;1.43;1.43;1.43;1.35;10.79;10.78;10.78;10.77;9.50;0.43
71522;SPS30;59343;51.102;5.884;2023-11-19T00:12:32;1.26;1.26;1.26;1.19;9.49;9.48;9.48;9.47;8.36;0.44
71522;SPS30;59343;51.102;5.884;2023-11-19T00:14:58;1.20;1.20;1.20;1.14;9.09;9.09;9.08;9.07;8.01;0.44
71522;SPS30;59343;51.102;5.884;2023-11-19T00:17:23;1.28;1.28;1.28;1.21;9.65;9.64;9.64;9.63;8.50;0.44
71522;SPS30;59343;51.102;5.884;2023-11-19T00:19:49;1.19;1.19;1.19;1.12;8.98;8.98;8.98;8.96;7.91;0.44
71522;SPS30;59343;51.102;5.884;2023-11-19T00:22:16;1.08;1.08;1.08;1.03;8.18;8.18;8.18;8.17;7.21;0.44
71522;SPS30;59343;51.102;5.884;2023-11-19T00:24:42;0.93;0.93;0.93;0.88;7.05;7.05;7.05;7.04;6.21;0.44
71522;SPS30;59343;51.102;5.884;2023-11-19T00:27:08;1.02;1.02;1.02;0.97;7.73;7.73;7.73;7.72;6.81;0.44
71522;SPS30;59343;51.102;5.884;2023-11-19T00:29:34;0.97;0.97;0.97;0.92;7.35;7.35;7.35;7.34;6.48;0.43
71522;SPS30;59343;51.102;5.884;2023-11-19T00:32:00;1.01;1.01;1.01;0.96;7.65;7.65;7.64;7.63;6.74;0.43
71522;SPS30;59343;51.102;5.884;2023-11-19T00:34:26;0.88;0.88;0.88;0.83;6.65;6.65;6.65;6.64;5.86;0.43
71522;SPS30;59343;51.102;5.884;2023-11-19T00:36:51;1.05;1.05;1.05;0.99;7.90;7.90;7.90;7.89;6.96;0.43
71522;SPS30;59343;51.102;5.884;2023-11-19T00:39:17;0.92;0.92;0.92;0.87;6.93;6.93;6.93;6.92;6.11;0.43
71522;SPS30;59343;51.102;5.884;2023-11-19T00:41:43;0.95;0.95;0.95;0.90;7.18;7.18;7.18;7.16;6.33;0.44
71522;SPS30;59343;51.102;5.884;2023-11-19T00:44:10;0.91;0.91;0.91;0.86;6.88;6.88;6.87;6.86;6.06;0.44
71522;SPS30;59343;51.102;5.884;2023-11-19T00:46:36;0.97;0.97;0.97;0.92;7.35;7.35;7.35;7.34;6.48;0.43
71522;SPS30;59343;51.102;5.884;2023-11-19T00:49:02;0.86;0.86;0.86;0.81;6.48;6.48;6.48;6.47;5.71;0.43
71522;SPS30;59343;51.102;5.884;2023-11-19T00:51:28;0.99;0.99;0.99;0.94;7.47;7.47;7.47;7.45;6.58;0.44
71522;SPS30;59343;51.102;5.884;2023-11-19T00:53:53;0.79;0.79;0.79;0.75;5.98;5.98;5.98;5.97;5.27;0.44
71522;SPS30;59343;51.102;5.884;2023-11-19T00:56:20;0.91;0.91;0.91;0.86;6.84;6.84;6.84;6.83;6.03;0.44
71522;SPS30;59343;51.102;5.884;2023-11-19T00:58:46;0.79;0.79;0.79;0.74;5.94;5.94;5.94;5.93;5.24;0.44
71522;SPS30;59343;51.102;5.884;2023-11-19T01:01:11;0.72;0.72;0.72;0.68;5.43;5.43;5.42;5.42;4.78;0.45
71522;SPS30;59343;51.102;5.884;2023-11-19T01:03:37;0.77;0.77;0.77;0.72;5.78;5.78;5.78;5.77;5.10;0.45
71522;SPS30;59343;51.102;5.884;2023-11-19T01:06:03;0.72;0.72;0.72;0.68;5.45;5.45;5.45;5.44;4.80;0.44
71522;SPS30;59343;51.102;5.884;2023-11-19T01:08:30;0.72;0.72;0.72;0.68;5.47;5.47;5.46;5.46;4.82;0.43
71522;SPS30;59343;51.102;5.884;2023-11-19T01:10:55;0.84;0.84;0.84;0.80;6.35;6.35;6.35;6.34;5.60;0.43
71522;SPS30;59343;51.102;5.884;2023-11-19T01:13:21;0.86;0.86;0.86;0.81;6.49;6.49;6.48;6.47;5.72;0.44
71522;SPS30;59343;51.102;5.884;2023-11-19T01:15:47;0.79;0.79;0.79;0.75;5.97;5.97;5.97;5.96;5.26;0.46
71522;SPS30;59343;51.102;5.884;2023-11-19T01:18:13;0.93;0.93;0.93;0.88;7.05;7.05;7.04;7.03;6.21;0.47
71522;SPS30;59343;51.102;5.884;2023-11-19T01:20:39;0.98;0.98;0.98;0.93;7.41;7.40;7.40;7.39;6.53;0.46
71522;SPS30;59343;51.102;5.884;2023-11-19T01:23:05;0.97;0.97;0.97;0.91;7.30;7.30;7.30;7.29;6.43;0.46
71522;SPS30;59343;51.102;5.884;2023-11-19T01:25:31;1.07;1.07;1.07;1.01;8.09;8.09;8.09;8.07;7.13;0.46
71522;SPS30;59343;51.102;5.884;2023-11-19T01:27:57;1.21;1.21;1.21;1.14;9.12;9.12;9.11;9.10;8.03;0.46
71522;SPS30;59343;51.102;5.884;2023-11-19T01:30:24;1.39;1.39;1.39;1.31;10.49;10.49;10.49;10.47;9.24;0.47
71522;SPS30;59343;51.102;5.884;2023-11-19T01:32:50;1.35;1.35;1.35;1.27;10.16;10.15;10.15;10.14;8.95;0.48
71522;SPS30;59343;51.102;5.884;2023-11-19T01:35:16;1.52;1.49;1.44;1.31;10.43;10.43;10.42;10.34;9.02;0.50
71522;SPS30;59343;51.102;5.884;2023-11-19T01:37:41;1.60;1.56;1.49;1.33;10.63;10.63;10.61;10.51;9.13;0.51
71522;SPS30;59343;51.102;5.884;2023-11-19T01:40:07;1.69;1.65;1.58;1.41;11.29;11.28;11.26;11.16;9.70;0.51
71522;SPS30;59343;51.102;5.884;2023-11-19T01:42:39;1.81;1.78;1.72;1.55;12.40;12.39;12.38;12.28;10.71;0.50
71522;SPS30;59343;51.102;5.884;2023-11-19T01:45:06;1.64;1.61;1.55;1.40;11.21;11.20;11.19;11.10;9.67;0.51
71522;SPS30;59343;51.102;5.884;2023-11-19T01:47:34;1.87;1.84;1.78;1.62;12.92;12.91;12.90;12.80;11.18;0.50
71522;SPS30;59343;51.102;5.884;2023-11-19T01:50:02;1.95;1.93;1.87;1.70;13.59;13.59;13.57;13.48;11.78;0.52
71522;SPS30;59343;51.102;5.884;2023-11-19T01:52:32;1.95;1.92;1.86;1.69;13.46;13.46;13.44;13.34;11.65;0.52
71522;SPS30;59343;51.102;5.884;2023-11-19T01:55:02;2.09;2.05;1.99;1.80;14.41;14.41;14.39;14.28;12.47;0.49
71522;SPS30;59343;51.102;5.884;2023-11-19T01:57:28;1.90;1.90;1.90;1.79;14.30;14.30;14.30;14.27;12.59;0.48
71522;SPS30;59343;51.102;5.884;2023-11-19T01:59:54;1.90;1.89;1.88;1.76;14.07;14.07;14.06;14.03;12.36;0.48
71522;SPS30;59343;51.102;5.884;2023-11-19T02:02:20;2.36;2.31;2.20;1.96;15.67;15.66;15.63;15.48;13.44;0.51
71522;SPS30;59343;51.102;5.884;2023-11-19T02:04:49;2.09;2.04;1.95;1.74;13.87;13.86;13.84;13.70;11.89;0.53
71522;SPS30;59343;51.102;5.884;2023-11-19T02:07:17;2.56;2.47;2.31;2.01;16.03;16.02;15.98;15.76;13.57;0.55
71522;SPS30;59343;51.102;5.884;2023-11-19T02:09:43;2.46;2.36;2.16;1.82;14.53;14.52;14.47;14.20;12.12;0.58
71522;SPS30;59343;51.102;5.884;2023-11-19T02:12:10;2.73;2.60;2.34;1.92;15.38;15.37;15.31;14.96;12.66;0.60
71522;SPS30;59343;51.102;5.884;2023-11-19T02:14:37;2.63;2.50;2.24;1.82;14.59;14.57;14.51;14.17;11.96;0.61
71522;SPS30;59343;51.102;5.884;2023-11-19T02:17:06;2.67;2.54;2.27;1.85;14.76;14.75;14.69;14.34;12.09;0.59
71522;SPS30;59343;51.102;5.884;2023-11-19T02:19:32;2.75;2.60;2.32;1.87;15.00;14.98;14.92;14.54;12.24;0.58
71522;SPS30;59343;51.102;5.884;2023-11-19T02:21:58;2.50;2.37;2.10;1.69;13.50;13.49;13.43;13.08;10.99;0.56
71522;SPS30;59343;51.102;5.884;2023-11-19T02:24:23;2.81;2.66;2.36;1.89;15.09;15.08;15.01;14.61;12.26;0.57
71522;SPS30;59343;51.102;5.884;2023-11-19T02:27:02;3.21;3.01;2.62;2.03;16.25;16.23;16.14;15.63;12.97;0.60
71522;SPS30;59343;51.102;5.884;2023-11-19T02:29:39;2.92;2.73;2.36;1.82;14.54;14.53;14.44;13.97;11.55;0.61
71522;SPS30;59343;51.102;5.884;2023-11-19T02:32:05;2.96;2.75;2.35;1.76;14.11;14.09;14.00;13.47;11.04;0.63
71522;SPS30;59343;51.102;5.884;2023-11-19T02:34:35;3.46;3.22;2.75;2.07;16.56;16.54;16.43;15.82;12.97;0.62
71522;SPS30;59343;51.102;5.884;2023-11-19T02:37:04;3.32;3.07;2.59;1.90;15.18;15.16;15.05;14.42;11.70;0.64
71522;SPS30;59343;51.102;5.884;2023-11-19T02:39:30;3.39;3.13;2.62;1.90;15.18;15.16;15.04;14.38;11.61;0.66
71522;SPS30;59343;51.102;5.884;2023-11-19T02:41:56;3.68;3.39;2.84;2.06;16.50;16.47;16.35;15.64;12.63;0.66
71522;SPS30;59343;51.102;5.884;2023-11-19T02:44:22;3.06;2.84;2.41;1.79;14.30;14.28;14.18;13.62;11.11;0.64
71522;SPS30;59343;51.102;5.884;2023-11-19T02:46:48;3.52;3.27;2.79;2.09;16.76;16.74;16.63;16.01;13.11;0.64
71522;SPS30;59343;51.102;5.884;2023-11-19T02:49:14;3.50;3.24;2.74;2.02;16.16;16.14;16.02;15.37;12.50;0.65
71522;SPS30;59343;51.102;5.884;2023-11-19T02:51:40;3.39;3.14;2.65;1.95;15.61;15.58;15.47;14.84;12.06;0.66
71522;SPS30;59343;51.102;5.884;2023-11-19T02:54:06;3.42;3.16;2.65;1.93;15.48;15.46;15.34;14.69;11.90;0.65
71522;SPS30;59343;51.102;5.884;2023-11-19T02:56:32;4.07;3.72;3.03;2.09;16.74;16.71;16.56;15.68;12.39;0.70
71522;SPS30;59343;51.102;5.884;2023-11-19T02:59:02;4.30;3.89;3.10;2.03;16.31;16.28;16.10;15.09;11.64;0.74
71522;SPS30;59343;51.102;5.884;2023-11-19T03:01:40;4.63;4.20;3.35;2.20;17.61;17.57;17.38;16.30;12.58;0.73
71522;SPS30;59343;51.102;5.884;2023-11-19T03:04:09;5.27;4.75;3.73;2.37;19.01;18.97;18.74;17.45;13.24;0.76
71522;SPS30;59343;51.102;5.884;2023-11-19T03:06:37;5.55;4.98;3.88;2.40;19.29;19.24;18.99;17.58;13.17;0.79
71522;SPS30;59343;51.102;5.884;2023-11-19T03:09:04;5.71;5.09;3.87;2.28;18.28;18.23;17.96;16.41;11.90;0.84
71522;SPS30;59343;51.102;5.884;2023-11-19T03:11:35;6.44;5.71;4.28;2.43;19.54;19.48;19.16;17.36;12.30;0.86
71522;SPS30;59343;51.102;5.884;2023-11-19T03:14:02;6.40;5.66;4.22;2.34;18.83;18.78;18.45;16.62;11.61;0.87
71522;SPS30;59343;51.102;5.884;2023-11-19T03:16:30;6.49;5.73;4.25;2.33;18.76;18.70;18.36;16.49;11.41;0.88
71522;SPS30;59343;51.102;5.884;2023-11-19T03:18:56;6.73;5.92;4.35;2.32;18.70;18.63;18.28;16.29;11.04;0.91
71522;SPS30;59343;51.102;5.884;2023-11-19T03:21:29;7.27;6.39;4.68;2.48;19.92;19.85;19.47;17.30;11.64;0.94
71522;SPS30;59343;51.102;5.884;2023-11-19T03:23:57;7.32;6.42;4.68;2.44;19.62;19.55;19.16;16.96;11.26;0.94
71522;SPS30;59343;51.102;5.884;2023-11-19T03:26:26;7.50;6.58;4.78;2.46;19.83;19.76;19.36;17.08;11.25;0.95
71522;SPS30;59343;51.102;5.884;2023-11-19T03:28:52;5.99;5.28;3.88;2.08;16.73;16.68;16.36;14.60;9.92;0.91
71522;SPS30;59343;51.102;5.884;2023-11-19T03:31:19;6.22;5.49;4.05;2.20;17.67;17.61;17.29;15.48;10.61;0.89
71522;SPS30;59343;51.102;5.884;2023-11-19T03:33:45;5.99;5.31;3.98;2.25;18.05;18.00;17.70;16.01;11.31;0.86
71522;SPS30;59343;51.102;5.884;2023-11-19T03:36:12;5.86;5.20;3.92;2.25;18.07;18.02;17.73;16.10;11.49;0.85
71522;SPS30;59343;51.102;5.884;2023-11-19T03:38:38;5.81;5.14;3.83;2.13;17.09;17.03;16.74;15.08;10.52;0.88
71522;SPS30;59343;51.102;5.884;2023-11-19T03:41:10;5.83;5.17;3.88;2.20;17.65;17.59;17.30;15.67;11.08;0.87
71522;SPS30;59343;51.102;5.884;2023-11-19T03:43:38;6.01;5.32;3.98;2.24;17.99;17.94;17.64;15.94;11.22;0.87
71522;SPS30;59343;51.102;5.884;2023-11-19T03:46:15;5.58;4.95;3.73;2.12;17.05;17.00;16.72;15.16;10.77;0.85
71522;SPS30;59343;51.102;5.884;2023-11-19T03:48:46;5.95;5.28;3.97;2.26;18.16;18.11;17.82;16.15;11.47;0.85
71522;SPS30;59343;51.102;5.884;2023-11-19T03:51:13;5.95;5.29;4.00;2.32;18.64;18.58;18.29;16.66;11.98;0.83
71522;SPS30;59343;51.102;5.884;2023-11-19T03:53:43;5.08;4.51;3.41;1.96;15.76;15.71;15.47;14.06;10.07;0.85
71522;SPS30;59343;51.102;5.884;2023-11-19T03:56:10;5.27;4.69;3.54;2.04;16.39;16.34;16.09;14.63;10.48;0.87
71522;SPS30;59343;51.102;5.884;2023-11-19T03:58:37;5.64;5.00;3.76;2.14;17.20;17.15;16.87;15.30;10.86;0.87
71522;SPS30;59343;51.102;5.884;2023-11-19T04:01:04;5.95;5.29;4.00;2.32;18.63;18.58;18.29;16.66;11.97;0.85
71522;SPS30;59343;51.102;5.884;2023-11-19T04:03:30;5.60;4.99;3.78;2.20;17.69;17.64;17.37;15.84;11.42;0.85
71522;SPS30;59343;51.102;5.884;2023-11-19T04:05:56;6.53;5.80;4.36;2.48;19.95;19.89;19.56;17.74;12.60;0.85
71522;SPS30;59343;51.102;5.884;2023-11-19T04:08:22;6.08;5.40;4.08;2.34;18.81;18.75;18.46;16.77;11.98;0.84
71522;SPS30;59343;51.102;5.884;2023-11-19T04:10:48;6.57;5.82;4.34;2.43;19.50;19.44;19.11;17.24;12.09;0.88
71522;SPS30;59343;51.102;5.884;2023-11-19T04:13:14;7.49;6.60;4.87;2.63;21.18;21.11;20.72;18.53;12.68;0.92
71522;SPS30;59343;51.102;5.884;2023-11-19T04:15:39;7.47;6.56;4.78;2.50;20.09;20.02;19.62;17.38;11.56;0.94
71522;SPS30;59343;51.102;5.884;2023-11-19T04:18:05;7.80;6.85;4.99;2.59;20.88;20.80;20.39;18.04;11.97;0.94
71522;SPS30;59343;51.102;5.884;2023-11-19T04:20:31;8.15;7.14;5.18;2.66;21.45;21.37;20.93;18.46;12.12;0.95
71522;SPS30;59343;51.102;5.884;2023-11-19T04:22:57;7.05;6.20;4.54;2.40;19.32;19.25;18.88;16.78;11.29;0.94
71522;SPS30;59343;51.102;5.884;2023-11-19T04:25:23;7.28;6.38;4.64;2.40;19.36;19.29;18.90;16.70;11.04;0.96
71522;SPS30;59343;51.102;5.884;2023-11-19T04:27:51;7.81;6.85;4.97;2.56;20.59;20.51;20.09;17.72;11.65;0.95
71522;SPS30;59343;51.102;5.884;2023-11-19T04:30:17;7.26;6.38;4.68;2.48;19.93;19.86;19.48;17.32;11.66;0.93
71522;SPS30;59343;51.102;5.884;2023-11-19T04:32:44;7.93;6.97;5.09;2.67;21.50;21.43;21.00;18.63;12.45;0.93
71522;SPS30;59343;51.102;5.884;2023-11-19T04:35:10;7.82;6.86;5.00;2.60;20.91;20.83;20.42;18.06;11.97;0.93
71522;SPS30;59343;51.102;5.884;2023-11-19T04:37:36;7.91;6.94;5.04;2.61;20.99;20.91;20.49;18.09;11.94;0.95
71522;SPS30;59343;51.102;5.884;2023-11-19T04:40:03;7.62;6.67;4.82;2.45;19.73;19.66;19.24;16.91;10.99;0.97
71522;SPS30;59343;51.102;5.884;2023-11-19T04:42:29;7.57;6.63;4.80;2.45;19.74;19.66;19.25;16.94;11.06;0.97
71522;SPS30;59343;51.102;5.884;2023-11-19T04:44:55;8.20;7.18;5.19;2.63;21.20;21.12;20.67;18.16;11.79;0.97
71522;SPS30;59343;51.102;5.884;2023-11-19T04:47:21;7.06;6.17;4.42;2.20;17.70;17.62;17.24;15.04;9.57;0.98
71522;SPS30;59343;51.102;5.884;2023-11-19T04:49:47;7.03;6.15;4.44;2.24;18.06;17.99;17.60;15.44;9.98;0.96
71522;SPS30;59343;51.102;5.884;2023-11-19T04:52:13;7.48;6.57;4.79;2.51;20.17;20.10;19.70;17.45;11.62;0.93
71522;SPS30;59343;51.102;5.884;2023-11-19T04:54:42;7.68;6.76;4.95;2.63;21.18;21.11;20.71;18.43;12.44;0.91
71522;SPS30;59343;51.102;5.884;2023-11-19T04:57:09;7.79;6.83;4.95;2.54;20.48;20.40;19.98;17.62;11.56;0.95
71522;SPS30;59343;51.102;5.884;2023-11-19T04:59:38;8.27;7.24;5.24;2.67;21.46;21.38;20.93;18.40;11.97;0.95
71522;SPS30;59343;51.102;5.884;2023-11-19T05:02:04;8.05;7.05;5.10;2.61;20.99;20.91;20.47;18.02;11.77;0.95
71522;SPS30;59343;51.102;5.884;2023-11-19T05:04:31;8.21;7.20;5.22;2.68;21.57;21.48;21.04;18.54;12.16;0.94
71522;SPS30;59343;51.102;5.884;2023-11-19T05:06:57;7.49;6.58;4.80;2.50;20.15;20.08;19.68;17.42;11.59;0.94
71522;SPS30;59343;51.102;5.884;2023-11-19T05:09:23;8.08;7.07;5.08;2.54;20.49;20.41;19.96;17.46;11.19;0.97
71522;SPS30;59343;51.102;5.884;2023-11-19T05:11:48;8.50;7.44;5.36;2.71;21.84;21.75;21.29;18.67;12.08;0.97
71522;SPS30;59343;51.102;5.884;2023-11-19T05:14:14;8.78;7.68;5.53;2.78;22.38;22.29;21.81;19.10;12.29;0.98
71522;SPS30;59343;51.102;5.884;2023-11-19T05:16:40;8.17;7.13;5.11;2.53;20.38;20.30;19.85;17.30;10.98;0.99
71522;SPS30;59343;51.102;5.884;2023-11-19T05:19:06;7.55;6.59;4.72;2.33;18.79;18.71;18.29;15.93;10.08;0.99
71522;SPS30;59343;51.102;5.884;2023-11-19T05:21:32;8.05;7.03;5.04;2.50;20.16;20.08;19.64;17.13;10.89;0.99
71522;SPS30;59343;51.102;5.884;2023-11-19T05:24:00;7.75;6.80;4.95;2.56;20.65;20.57;20.15;17.81;11.78;0.94
71522;SPS30;59343;51.102;5.884;2023-11-19T05:26:25;7.91;6.95;5.06;2.64;21.25;21.18;20.75;18.38;12.22;0.93
71522;SPS30;59343;51.102;5.884;2023-11-19T05:28:51;8.32;7.29;5.28;2.71;21.80;21.72;21.27;18.74;12.28;0.94
71522;SPS30;59343;51.102;5.884;2023-11-19T05:31:17;8.42;7.38;5.34;2.73;21.98;21.90;21.44;18.87;12.32;0.95
71522;SPS30;59343;51.102;5.884;2023-11-19T05:33:44;9.04;7.92;5.72;2.91;23.41;23.32;22.83;20.05;13.03;0.94
71522;SPS30;59343;51.102;5.884;2023-11-19T05:36:11;8.67;7.60;5.52;2.85;22.94;22.85;22.39;19.76;13.01;0.96
71522;SPS30;59343;51.102;5.884;2023-11-19T05:38:38;9.56;8.34;5.97;2.93;23.63;23.54;23.01;20.01;12.61;1.00
71522;SPS30;59343;51.102;5.884;2023-11-19T05:41:04;8.47;7.41;5.34;2.69;21.65;21.56;21.10;18.48;11.91;0.99
71522;SPS30;59343;51.102;5.884;2023-11-19T05:43:31;9.40;8.23;5.96;3.04;24.50;24.40;23.90;21.02;13.73;0.97
71522;SPS30;59343;51.102;5.884;2023-11-19T05:45:57;10.46;9.12;6.49;3.15;25.40;25.30;24.71;21.40;13.32;1.02
71522;SPS30;59343;51.102;5.884;2023-11-19T05:48:25;10.11;8.83;6.34;3.15;25.41;25.30;24.75;21.60;13.77;1.00
71522;SPS30;59343;51.102;5.884;2023-11-19T05:50:52;8.15;7.14;5.16;2.62;21.08;21.00;20.56;18.06;11.73;0.98
71522;SPS30;59343;51.102;5.884;2023-11-19T05:53:18;10.21;8.90;6.34;3.07;24.77;24.67;24.09;20.87;12.97;1.02
71522;SPS30;59343;51.102;5.884;2023-11-19T05:55:44;11.34;9.88;7.01;3.37;27.16;27.05;26.41;22.80;14.04;1.02
71522;SPS30;59343;51.102;5.884;2023-11-19T05:58:23;10.15;8.84;6.28;3.02;24.31;24.21;23.63;20.40;12.56;1.02
71522;SPS30;59343;51.102;5.884;2023-11-19T06:00:51;10.23;8.91;6.31;3.01;24.25;24.14;23.56;20.29;12.39;1.03
71522;SPS30;59343;51.102;5.884;2023-11-19T06:03:17;10.21;8.87;6.27;2.96;23.85;23.74;23.16;19.88;12.01;1.03
71522;SPS30;59343;51.102;5.884;2023-11-19T06:05:47;10.26;8.91;6.29;2.96;23.87;23.76;23.17;19.87;11.96;1.04
71522;SPS30;59343;51.102;5.884;2023-11-19T06:08:14;10.13;8.83;6.28;3.04;24.48;24.37;23.80;20.59;12.76;1.02
71522;SPS30;59343;51.102;5.884;2023-11-19T06:10:40;10.22;8.88;6.27;2.95;23.77;23.66;23.07;19.78;11.90;1.04
71522;SPS30;59343;51.102;5.884;2023-11-19T06:13:06;10.80;9.39;6.63;3.13;25.21;25.10;24.48;21.01;12.68;1.04
71522;SPS30;59343;51.102;5.884;2023-11-19T06:15:35;10.31;8.98;6.38;3.07;24.75;24.64;24.06;20.79;12.83;1.01
71522;SPS30;59343;51.102;5.884;2023-11-19T06:18:01;10.31;8.96;6.34;3.00;24.21;24.10;23.52;20.21;12.26;1.03
71522;SPS30;59343;51.102;5.884;2023-11-19T06:20:29;10.15;8.83;6.25;2.97;23.96;23.85;23.28;20.02;12.19;1.03
71522;SPS30;59343;51.102;5.884;2023-11-19T06:22:56;9.97;8.68;6.17;2.98;24.01;23.91;23.35;20.18;12.48;1.02
71522;SPS30;59343;51.102;5.884;2023-11-19T06:25:22;9.71;8.48;6.09;3.02;24.37;24.27;23.73;20.71;13.19;0.99
71522;SPS30;59343;51.102;5.884;2023-11-19T06:27:49;9.94;8.65;6.14;2.94;23.72;23.62;23.06;19.89;12.22;1.01
71522;SPS30;59343;51.102;5.884;2023-11-19T06:30:16;11.31;9.82;6.92;3.23;26.08;25.96;25.32;21.66;12.95;1.03
71522;SPS30;59343;51.102;5.884;2023-11-19T06:32:42;11.25;9.78;6.92;3.27;26.36;26.24;25.60;21.98;13.31;1.01
71522;SPS30;59343;51.102;5.884;2023-11-19T06:35:08;12.42;10.81;7.68;3.69;29.76;29.64;28.94;24.99;15.40;1.01
71522;SPS30;59343;51.102;5.884;2023-11-19T06:37:41;11.42;9.94;7.07;3.40;27.43;27.31;26.67;23.04;14.22;1.02
71522;SPS30;59343;51.102;5.884;2023-11-19T06:40:07;10.90;9.50;6.78;3.30;26.62;26.51;25.90;22.46;14.04;1.02
71522;SPS30;59343;51.102;5.884;2023-11-19T06:42:37;11.07;9.64;6.86;3.31;26.68;26.57;25.95;22.44;13.88;1.02
71522;SPS30;59343;51.102;5.884;2023-11-19T06:45:04;12.62;10.96;7.71;3.59;28.95;28.82;28.09;24.00;14.28;1.06
71522;SPS30;59343;51.102;5.884;2023-11-19T06:47:31;12.33;10.71;7.57;3.57;28.75;28.62;27.92;23.95;14.45;1.05
71522;SPS30;59343;51.102;5.884;2023-11-19T06:49:57;13.11;11.36;7.95;3.63;29.31;29.17;28.41;24.11;14.03;1.08
71522;SPS30;59343;51.102;5.884;2023-11-19T06:52:24;12.76;11.08;7.81;3.66;29.52;29.39;28.66;24.54;14.70;1.03
71522;SPS30;59343;51.102;5.884;2023-11-19T06:54:50;12.38;10.76;7.59;3.57;28.77;28.64;27.94;23.94;14.40;1.03
71522;SPS30;59343;51.102;5.884;2023-11-19T06:57:16;11.11;9.67;6.85;3.26;26.32;26.20;25.57;22.02;13.44;1.04
71522;SPS30;59343;51.102;5.884;2023-11-19T06:59:42;11.75;10.20;7.19;3.37;27.17;27.05;26.38;22.59;13.53;1.04
71522;SPS30;59343;51.102;5.884;2023-11-19T07:02:08;11.76;10.21;7.18;3.33;26.89;26.76;26.09;22.27;13.21;1.04
71522;SPS30;59343;51.102;5.884;2023-11-19T07:04:34;12.28;10.66;7.49;3.48;28.04;27.91;27.20;23.21;13.76;1.05
71522;SPS30;59343;51.102;5.884;2023-11-19T07:07:00;10.55;9.16;6.46;3.03;24.40;24.29;23.69;20.28;12.15;1.05
71522;SPS30;59343;51.102;5.884;2023-11-19T07:09:26;11.42;9.92;7.00;3.29;26.57;26.45;25.80;22.12;13.31;1.05
71522;SPS30;59343;51.102;5.884;2023-11-19T07:11:52;11.14;9.71;6.92;3.35;27.02;26.91;26.28;22.76;14.15;1.03
71522;SPS30;59343;51.102;5.884;2023-11-19T07:14:19;11.35;9.89;7.04;3.40;27.44;27.32;26.68;23.09;14.31;1.02
71522;SPS30;59343;51.102;5.884;2023-11-19T07:16:45;11.37;9.88;6.96;3.25;26.24;26.12;25.47;21.79;13.03;1.06
71522;SPS30;59343;51.102;5.884;2023-11-19T07:19:15;11.37;9.87;6.95;3.24;26.16;26.05;25.39;21.71;12.95;1.07
71522;SPS30;59343;51.102;5.884;2023-11-19T07:21:41;11.00;9.54;6.68;3.07;24.77;24.66;24.02;20.43;11.97;1.07
71522;SPS30;59343;51.102;5.884;2023-11-19T07:24:09;12.12;10.53;7.43;3.49;28.16;28.03;27.34;23.43;14.09;1.04
71522;SPS30;59343;51.102;5.884;2023-11-19T07:26:45;12.90;11.19;7.86;3.64;29.36;29.22;28.48;24.29;14.36;1.05
71522;SPS30;59343;51.102;5.884;2023-11-19T07:29:15;11.93;10.35;7.28;3.37;27.21;27.09;26.40;22.52;13.34;1.05
71522;SPS30;59343;51.102;5.884;2023-11-19T07:31:42;11.81;10.25;7.20;3.34;26.95;26.83;26.15;22.31;13.22;1.05
71522;SPS30;59343;51.102;5.884;2023-11-19T07:34:11;10.93;9.50;6.71;3.15;25.43;25.32;24.69;21.17;12.74;1.03
71522;SPS30;59343;51.102;5.884;2023-11-19T07:36:37;11.05;9.62;6.81;3.25;26.21;26.10;25.47;21.94;13.41;1.00
71522;SPS30;59343;51.102;5.884;2023-11-19T07:39:03;12.42;10.80;7.63;3.61;29.10;28.97;28.26;24.27;14.69;1.02
71522;SPS30;59343;51.102;5.884;2023-11-19T07:41:33;11.67;10.16;7.21;3.46;27.87;27.75;27.09;23.37;14.36;1.01
71522;SPS30;59343;51.102;5.884;2023-11-19T07:44:04;11.16;9.72;6.91;3.34;26.89;26.78;26.15;22.61;13.98;1.02
71522;SPS30;59343;51.102;5.884;2023-11-19T07:46:31;10.53;9.17;6.51;3.12;25.18;25.07;24.48;21.12;12.99;1.02
71522;SPS30;59343;51.102;5.884;2023-11-19T07:48:58;11.10;9.64;6.80;3.19;25.70;25.59;24.95;21.37;12.82;1.03
71522;SPS30;59343;51.102;5.884;2023-11-19T07:51:24;12.21;10.65;7.62;3.75;30.19;30.07;29.39;25.56;16.11;0.98
71522;SPS30;59343;51.102;5.884;2023-11-19T07:53:50;11.11;9.70;6.95;3.44;27.74;27.63;27.01;23.55;14.94;0.98
71522;SPS30;59343;51.102;5.884;2023-11-19T07:56:16;11.07;9.66;6.91;3.39;27.35;27.23;26.62;23.15;14.58;0.99
71522;SPS30;59343;51.102;5.884;2023-11-19T07:58:42;12.08;10.54;7.54;3.72;29.96;29.83;29.16;25.38;16.03;0.99
71522;SPS30;59343;51.102;5.884;2023-11-19T08:01:08;10.43;9.11;6.52;3.21;25.85;25.75;25.17;21.90;13.82;1.00
71522;SPS30;59343;51.102;5.884;2023-11-19T08:03:34;10.74;9.39;6.77;3.41;27.48;27.37;26.79;23.48;15.14;0.98
71522;SPS30;59343;51.102;5.884;2023-11-19T08:06:00;10.70;9.36;6.74;3.38;27.26;27.15;26.56;23.26;14.96;0.99
71522;SPS30;59343;51.102;5.884;2023-11-19T08:08:27;10.00;8.74;6.30;3.16;25.48;25.38;24.83;21.75;13.99;0.98
71522;SPS30;59343;51.102;5.884;2023-11-19T08:10:55;11.22;9.80;7.03;3.48;28.06;27.95;27.33;23.82;15.13;1.00
71522;SPS30;59343;51.102;5.884;2023-11-19T08:13:23;10.98;9.60;6.92;3.48;28.03;27.92;27.32;23.93;15.41;0.98
71522;SPS30;59343;51.102;5.884;2023-11-19T08:15:49;10.90;9.52;6.83;3.39;27.34;27.23;26.62;23.23;14.79;1.00
71522;SPS30;59343;51.102;5.884;2023-11-19T08:18:16;12.23;10.67;7.62;3.74;30.12;29.99;29.31;25.47;16.01;1.00
71522;SPS30;59343;51.102;5.884;2023-11-19T08:20:43;10.72;9.39;6.78;3.44;27.72;27.61;27.03;23.74;15.41;0.99
71522;SPS30;59343;51.102;5.884;2023-11-19T08:23:11;10.61;9.27;6.64;3.29;26.50;26.39;25.81;22.49;14.27;1.00
71522;SPS30;59343;51.102;5.884;2023-11-19T08:25:36;10.61;9.25;6.61;3.24;26.07;25.96;25.37;22.04;13.83;1.01
71522;SPS30;59343;51.102;5.884;2023-11-19T08:28:03;10.69;9.33;6.67;3.28;26.39;26.28;25.69;22.33;14.06;1.01
71522;SPS30;59343;51.102;5.884;2023-11-19T08:30:29;11.50;10.04;7.19;3.54;28.53;28.42;27.78;24.18;15.27;1.00
71522;SPS30;59343;51.102;5.884;2023-11-19T08:32:55;10.79;9.43;6.77;3.38;27.24;27.13;26.54;23.19;14.83;0.99
71522;SPS30;59343;51.102;5.884;2023-11-19T08:35:22;12.73;11.08;7.86;3.76;30.30;30.17;29.45;25.39;15.56;1.03
71522;SPS30;59343;51.102;5.884;2023-11-19T08:37:49;12.00;10.43;7.37;3.48;28.08;27.95;27.27;23.41;14.16;1.05
71522;SPS30;59343;51.102;5.884;2023-11-19T08:40:15;12.16;10.55;7.42;3.45;27.83;27.70;27.01;23.06;13.70;1.05
71522;SPS30;59343;51.102;5.884;2023-11-19T08:42:41;11.45;9.97;7.08;3.41;27.46;27.34;26.70;23.06;14.22;1.02
71522;SPS30;59343;51.102;5.884;2023-11-19T08:45:07;10.80;9.41;6.70;3.25;26.22;26.11;25.50;22.09;13.74;1.02
71522;SPS30;59343;51.102;5.884;2023-11-19T08:47:36;11.02;9.60;6.82;3.28;26.43;26.32;25.70;22.19;13.68;1.01
71522;SPS30;59343;51.102;5.884;2023-11-19T08:50:02;11.31;9.86;7.04;3.44;27.76;27.64;27.01;23.45;14.71;1.00
71522;SPS30;59343;51.102;5.884;2023-11-19T08:52:30;12.01;10.46;7.41;3.54;28.57;28.45;27.77;23.93;14.66;1.04
71522;SPS30;59343;51.102;5.884;2023-11-19T08:54:56;11.60;10.10;7.16;3.43;27.63;27.51;26.86;23.16;14.20;1.02
71522;SPS30;59343;51.102;5.884;2023-11-19T08:57:22;11.93;10.41;7.42;3.62;29.13;29.01;28.35;24.58;15.35;1.01
71522;SPS30;59343;51.102;5.884;2023-11-19T08:59:48;12.42;10.81;7.66;3.66;29.54;29.41;28.71;24.74;15.16;1.04
71522;SPS30;59343;51.102;5.884;2023-11-19T09:02:14;12.50;10.86;7.65;3.58;28.87;28.74;28.03;23.98;14.35;1.06
71522;SPS30;59343;51.102;5.884;2023-11-19T09:04:40;12.94;11.23;7.89;3.65;29.46;29.32;28.58;24.37;14.40;1.07
71522;SPS30;59343;51.102;5.884;2023-11-19T09:07:06;13.32;11.57;8.16;3.82;30.83;30.69;29.93;25.63;15.36;1.05
71522;SPS30;59343;51.102;5.884;2023-11-19T09:09:35;11.33;9.86;6.98;3.33;26.81;26.70;26.06;22.43;13.69;1.03
71522;SPS30;59343;51.102;5.884;2023-11-19T09:12:02;12.58;10.92;7.68;3.58;28.84;28.71;27.99;23.91;14.22;1.06